createdAt,value
2023-05-16T00:00:45.296Z,99.10
2023-05-16T00:03:14.133Z,99.05
2023-05-16T00:05:41.362Z,99.01
2023-05-16T00:08:08.788Z,99.14
2023-05-16T00:10:35.950Z,98.99
2023-05-16T00:13:03.344Z,98.41
2023-05-16T00:15:30.799Z,98.85
2023-05-16T00:17:58.157Z,98.70
2023-05-16T00:20:27.822Z,98.59
2023-05-16T00:22:54.911Z,98.42
2023-05-16T00:25:22.693Z,98.41
2023-05-16T00:27:49.979Z,98.82
2023-05-16T00:30:16.772Z,98.57
2023-05-16T00:32:44.370Z,98.30
2023-05-16T00:35:11.147Z,97.39
2023-05-16T00:37:39.392Z,96.36
2023-05-16T00:40:08.064Z,95.97
2023-05-16T00:42:35.461Z,95.81
2023-05-16T00:45:02.736Z,95.19
2023-05-16T00:47:30.337Z,94.83
2023-05-16T00:49:57.661Z,94.63
2023-05-16T00:52:24.731Z,94.40
2023-05-16T00:54:53.749Z,94.53
2023-05-16T00:57:21.657Z,94.40
2023-05-16T00:59:49.037Z,93.99
2023-05-16T01:02:16.084Z,94.20
2023-05-16T01:04:44.064Z,94.04
2023-05-16T01:07:10.816Z,93.99
2023-05-16T01:09:38.364Z,93.93
2023-05-16T01:12:15.101Z,94.50
2023-05-16T01:14:57.095Z,95.06
2023-05-16T01:17:32.713Z,94.39
2023-05-16T01:20:08.736Z,94.23
2023-05-16T01:22:55.296Z,94.44
2023-05-16T01:25:32.365Z,94.58
2023-05-16T01:28:02.898Z,95.24
2023-05-16T01:30:33.863Z,95.56
2023-05-16T01:33:01.131Z,95.78
2023-05-16T01:35:29.614Z,96.79
2023-05-16T01:38:02.053Z,97.36
2023-05-16T01:40:36.643Z,97.54
2023-05-16T01:43:12.933Z,97.48
2023-05-16T01:45:47.812Z,98.04
2023-05-16T01:48:20.790Z,97.41
2023-05-16T01:50:54.860Z,97.07
2023-05-16T01:53:28.764Z,96.89
2023-05-16T01:56:00.450Z,96.83
2023-05-16T01:58:33.994Z,95.35
2023-05-16T02:01:02.519Z,95.08
2023-05-16T02:03:29.759Z,95.40
2023-05-16T02:05:57.134Z,95.68
2023-05-16T02:08:25.315Z,95.62
2023-05-16T02:10:52.703Z,95.67
2023-05-16T02:13:20.168Z,96.52
2023-05-16T02:15:48.583Z,96.90
2023-05-16T02:18:15.907Z,97.08
2023-05-16T02:20:43.226Z,97.52
2023-05-16T02:23:09.941Z,97.93
2023-05-16T02:25:37.134Z,98.31
2023-05-16T02:28:04.740Z,98.69
2023-05-16T02:30:31.405Z,98.67
2023-05-16T02:33:00.744Z,98.18
2023-05-16T02:35:28.803Z,97.79
2023-05-16T02:37:58.020Z,96.86
2023-05-16T02:40:25.232Z,96.71
2023-05-16T02:42:52.591Z,97.08
2023-05-16T02:45:20.016Z,96.24
2023-05-16T02:47:47.378Z,96.21
2023-05-16T02:50:16.049Z,95.89
2023-05-16T02:52:43.208Z,95.81
2023-05-16T02:55:21.835Z,96.42
2023-05-16T02:57:49.418Z,97.28
2023-05-16T03:00:18.546Z,97.72
2023-05-16T03:02:46.277Z,98.89
2023-05-16T03:05:15.701Z,99.53
2023-05-16T03:07:43.293Z,100.00
2023-05-16T03:10:10.927Z,100.00
2023-05-16T03:12:38.457Z,99.88
2023-05-16T03:15:07.167Z,100.00
2023-05-16T03:17:33.881Z,99.93
2023-05-16T03:20:02.217Z,99.16
2023-05-16T03:22:31.450Z,98.39
2023-05-16T03:24:58.802Z,97.79
2023-05-16T03:27:27.668Z,97.56
2023-05-16T03:29:54.794Z,97.77
2023-05-16T03:32:21.955Z,98.11
2023-05-16T03:34:49.732Z,97.28
2023-05-16T03:37:16.588Z,97.45
2023-05-16T03:39:45.672Z,97.36
2023-05-16T03:42:12.961Z,97.03
2023-05-16T03:44:39.645Z,98.56
2023-05-16T03:47:06.513Z,99.44
2023-05-16T03:49:34.097Z,99.42
2023-05-16T03:52:01.275Z,99.43
2023-05-16T03:54:28.607Z,99.19
2023-05-16T03:56:57.398Z,99.05
2023-05-16T03:59:24.786Z,98.33
2023-05-16T04:01:52.186Z,98.25
2023-05-16T04:04:19.738Z,97.94
2023-05-16T04:06:46.619Z,98.20
2023-05-16T04:09:14.011Z,98.42
2023-05-16T04:11:41.394Z,98.01
2023-05-16T04:14:10.088Z,98.97
2023-05-16T04:16:37.495Z,100.00
2023-05-16T04:19:04.959Z,100.00
2023-05-16T04:21:32.196Z,100.00
2023-05-16T04:23:59.297Z,100.00
2023-05-16T04:26:26.242Z,100.00
2023-05-16T04:28:53.659Z,100.00
2023-05-16T04:31:22.982Z,100.00
2023-05-16T04:33:50.477Z,100.00
2023-05-16T04:36:17.640Z,100.00
2023-05-16T04:38:44.616Z,100.00
2023-05-16T04:41:13.241Z,100.00
2023-05-16T04:43:40.579Z,100.00
2023-05-16T04:46:07.798Z,100.00
2023-05-16T04:48:36.681Z,100.00
2023-05-16T04:51:04.767Z,100.00
2023-05-16T04:53:31.987Z,100.00
2023-05-16T04:55:59.509Z,100.00
2023-05-16T04:58:26.958Z,100.00
2023-05-16T05:00:54.758Z,100.00
2023-05-16T05:03:22.212Z,100.00
2023-05-16T05:05:50.533Z,100.00
2023-05-16T05:08:18.174Z,100.00
2023-05-16T05:10:45.563Z,99.99
2023-05-16T05:13:13.047Z,100.00
2023-05-16T05:15:40.277Z,100.00
2023-05-16T05:18:07.830Z,99.88
2023-05-16T05:20:35.500Z,100.00
2023-05-16T05:23:04.089Z,100.00
2023-05-16T05:25:31.536Z,100.00
2023-05-16T05:27:58.366Z,100.00
2023-05-16T05:30:25.117Z,100.00
2023-05-16T05:32:52.538Z,100.00
2023-05-16T05:35:20.085Z,100.00
2023-05-16T05:37:47.200Z,99.76
2023-05-16T05:40:16.200Z,99.96
2023-05-16T05:42:46.165Z,99.72
2023-05-16T05:45:15.211Z,98.84
2023-05-16T05:47:43.147Z,98.38
2023-05-16T05:50:10.474Z,97.88
2023-05-16T05:52:38.408Z,97.11
2023-05-16T05:55:06.842Z,97.18
2023-05-16T05:57:35.725Z,96.95
2023-05-16T06:00:02.780Z,96.74
2023-05-16T06:02:30.161Z,97.35
2023-05-16T06:04:57.477Z,97.25
2023-05-16T06:07:24.888Z,97.68
2023-05-16T06:09:52.499Z,98.23
2023-05-16T06:12:19.622Z,97.84
2023-05-16T06:14:47.629Z,97.83
2023-05-16T06:17:15.012Z,96.98
2023-05-16T06:19:42.278Z,96.91
2023-05-16T06:22:08.976Z,96.10
2023-05-16T06:24:36.047Z,97.60
2023-05-16T06:27:03.292Z,97.43
2023-05-16T06:29:30.237Z,96.27
2023-05-16T06:31:58.849Z,96.28
2023-05-16T06:34:26.168Z,95.53
2023-05-16T06:36:53.456Z,95.67
2023-05-16T06:39:20.341Z,96.32
2023-05-16T06:41:47.704Z,95.83
2023-05-16T06:44:15.055Z,94.40
2023-05-16T06:46:42.776Z,93.92
2023-05-16T06:49:10.914Z,93.34
2023-05-16T06:51:37.705Z,93.53
2023-05-16T06:54:04.620Z,94.32
2023-05-16T06:56:31.828Z,94.58
2023-05-16T06:58:59.027Z,94.20
2023-05-16T07:01:26.562Z,93.95
2023-05-16T07:03:53.946Z,93.31
2023-05-16T07:06:22.650Z,94.03
2023-05-16T07:08:49.624Z,94.15
2023-05-16T07:11:16.474Z,93.99
2023-05-16T07:13:43.755Z,94.47
2023-05-16T07:16:10.683Z,95.10
2023-05-16T07:18:38.366Z,94.25
2023-05-16T07:21:05.143Z,94.45
2023-05-16T07:23:34.003Z,94.26
2023-05-16T07:26:01.211Z,94.29
2023-05-16T07:28:27.954Z,93.62
2023-05-16T07:30:54.794Z,93.96
2023-05-16T07:33:21.536Z,94.00
2023-05-16T07:35:48.244Z,93.51
2023-05-16T07:38:15.243Z,93.96
2023-05-16T07:40:43.639Z,95.82
2023-05-16T07:43:11.048Z,95.36
2023-05-16T07:45:38.095Z,95.67
2023-05-16T07:48:05.293Z,97.27
2023-05-16T07:50:32.570Z,97.22
2023-05-16T07:52:59.572Z,96.12
2023-05-16T07:55:26.778Z,88.94
2023-05-16T07:57:55.313Z,81.01
2023-05-16T08:00:22.429Z,79.57
2023-05-16T08:02:49.649Z,79.96
2023-05-16T08:05:17.241Z,83.97
2023-05-16T08:07:44.156Z,86.67
2023-05-16T08:10:13.135Z,88.18
2023-05-16T08:12:40.801Z,90.89
2023-05-16T08:15:11.649Z,91.70
2023-05-16T08:17:38.447Z,90.56
2023-05-16T08:20:06.374Z,92.30
2023-05-16T08:22:33.797Z,92.20
2023-05-16T08:25:01.104Z,92.40
2023-05-16T08:27:28.964Z,92.01
2023-05-16T08:29:55.735Z,91.53
2023-05-16T08:32:24.584Z,92.18
2023-05-16T08:34:51.919Z,90.79
2023-05-16T08:37:19.389Z,88.83
2023-05-16T08:39:46.536Z,88.63
2023-05-16T08:42:14.018Z,85.69
2023-05-16T08:44:41.141Z,85.63
2023-05-16T08:47:13.051Z,85.53
2023-05-16T08:49:41.910Z,83.92
2023-05-16T08:52:10.024Z,80.78
2023-05-16T08:54:37.741Z,79.12
2023-05-16T08:57:05.883Z,78.46
2023-05-16T08:59:32.936Z,76.05
2023-05-16T09:01:59.819Z,75.62
2023-05-16T09:04:27.006Z,74.34
2023-05-16T09:06:56.012Z,77.08
2023-05-16T09:09:24.000Z,77.97
2023-05-16T09:11:50.783Z,76.74
2023-05-16T09:14:17.545Z,80.46
2023-05-16T09:16:45.401Z,79.92
2023-05-16T09:19:14.004Z,75.92
2023-05-16T09:21:41.240Z,71.04
2023-05-16T09:24:10.621Z,70.13
2023-05-16T09:26:39.369Z,73.26
2023-05-16T09:29:10.930Z,72.38
2023-05-16T09:31:38.095Z,75.55
2023-05-16T09:34:09.022Z,76.42
2023-05-16T09:36:36.595Z,74.25
2023-05-16T09:39:04.533Z,73.99
2023-05-16T09:41:36.322Z,70.60
2023-05-16T09:44:05.515Z,66.13
2023-05-16T09:46:34.486Z,66.48
2023-05-16T09:49:01.295Z,64.21
2023-05-16T09:51:28.896Z,62.61
2023-05-16T09:53:58.680Z,65.27
2023-05-16T09:56:26.331Z,64.73
2023-05-16T09:58:55.049Z,67.99
2023-05-16T10:01:24.170Z,70.07
2023-05-16T10:03:51.859Z,69.98
2023-05-16T10:06:19.642Z,69.32
2023-05-16T10:08:47.865Z,68.71
2023-05-16T10:11:16.780Z,64.10
2023-05-16T10:13:45.972Z,60.55
2023-05-16T10:16:14.653Z,59.26
2023-05-16T10:18:43.615Z,61.01
2023-05-16T10:21:15.205Z,65.38
2023-05-16T10:23:43.181Z,62.67
2023-05-16T10:26:12.057Z,61.33
2023-05-16T10:28:40.692Z,58.68
2023-05-16T10:31:08.658Z,58.17
2023-05-16T10:33:37.882Z,56.57
2023-05-16T10:36:05.313Z,57.94
2023-05-16T10:38:33.861Z,59.82
2023-05-16T10:41:01.538Z,62.20
2023-05-16T10:43:29.930Z,61.89
2023-05-16T10:45:58.066Z,62.65
2023-05-16T10:48:32.350Z,60.47
2023-05-16T10:51:01.000Z,58.74
2023-05-16T10:53:34.141Z,56.85
2023-05-16T10:56:09.520Z,55.62
2023-05-16T10:58:44.229Z,58.05
2023-05-16T11:01:19.277Z,60.43
2023-05-16T11:04:16.100Z,62.43
2023-05-16T11:06:51.047Z,61.87
2023-05-16T11:09:26.768Z,59.83
2023-05-16T11:12:01.879Z,60.21
2023-05-16T11:14:35.012Z,59.94
2023-05-16T11:17:06.678Z,60.38
2023-05-16T11:19:36.045Z,60.27
2023-05-16T11:22:09.261Z,60.58
2023-05-16T11:24:37.194Z,59.71
2023-05-16T11:27:05.169Z,63.90
2023-05-16T11:29:33.348Z,62.34
2023-05-16T11:32:01.386Z,62.99
2023-05-16T11:34:28.606Z,62.07
2023-05-16T11:36:55.836Z,60.37
2023-05-16T11:39:24.106Z,59.10
2023-05-16T11:41:50.884Z,61.54
2023-05-16T11:44:17.726Z,58.64
2023-05-16T11:46:45.012Z,58.57
2023-05-16T11:49:12.231Z,59.06
2023-05-16T11:51:39.595Z,62.61
2023-05-16T11:54:07.211Z,65.60
2023-05-16T11:56:37.331Z,65.52
2023-05-16T11:59:04.747Z,67.05
2023-05-16T12:01:36.135Z,62.31
2023-05-16T12:04:09.690Z,58.65
2023-05-16T12:06:37.102Z,60.29
2023-05-16T12:09:04.979Z,58.96
2023-05-16T12:11:34.083Z,61.73
2023-05-16T12:14:03.806Z,59.76
2023-05-16T12:16:31.547Z,55.68
2023-05-16T12:18:59.206Z,58.90
2023-05-16T12:21:26.902Z,60.32
2023-05-16T12:23:56.306Z,60.14
2023-05-16T12:26:26.096Z,60.72
2023-05-16T12:28:54.302Z,57.86
2023-05-16T12:31:31.568Z,58.91
2023-05-16T12:33:59.317Z,61.53
2023-05-16T12:36:26.241Z,58.02
2023-05-16T12:38:53.758Z,57.59
2023-05-16T12:41:21.695Z,58.67
2023-05-16T12:43:49.577Z,62.46
2023-05-16T12:46:17.372Z,60.14
2023-05-16T12:48:46.180Z,61.56
2023-05-16T12:51:14.075Z,61.98
2023-05-16T12:53:57.590Z,61.08
2023-05-16T12:56:28.573Z,58.36
2023-05-16T12:58:55.605Z,58.00
2023-05-16T13:01:22.466Z,59.81
2023-05-16T13:03:50.764Z,61.39
2023-05-16T13:06:17.734Z,66.10
2023-05-16T13:08:44.507Z,65.34
2023-05-16T13:11:11.241Z,64.98
2023-05-16T13:13:37.990Z,64.41
2023-05-16T13:16:05.464Z,62.11
2023-05-16T13:18:32.301Z,63.69
2023-05-16T13:21:00.654Z,60.70
2023-05-16T13:23:27.449Z,60.70
2023-05-16T13:25:54.328Z,58.50
2023-05-16T13:28:21.425Z,55.88
2023-05-16T13:30:48.360Z,60.35
2023-05-16T13:33:15.179Z,59.19
2023-05-16T13:35:42.431Z,58.97
2023-05-16T13:38:10.769Z,60.54
2023-05-16T13:40:37.924Z,60.71
2023-05-16T13:43:05.611Z,58.72
2023-05-16T13:45:33.471Z,58.30
2023-05-16T13:48:00.232Z,56.63
2023-05-16T13:50:33.240Z,58.58
2023-05-16T13:53:01.615Z,56.06
2023-05-16T13:55:30.197Z,58.99
2023-05-16T13:57:57.714Z,56.11
2023-05-16T14:00:42.657Z,55.10
2023-05-16T14:03:12.483Z,57.55
2023-05-16T14:05:40.172Z,56.54
2023-05-16T14:08:07.483Z,59.61
2023-05-16T14:10:36.012Z,56.95
2023-05-16T14:13:02.815Z,57.81
2023-05-16T14:15:30.643Z,59.65
2023-05-16T14:17:58.398Z,60.44
2023-05-16T14:20:25.451Z,61.99
2023-05-16T14:22:52.984Z,58.48
2023-05-16T14:25:20.661Z,57.63
2023-05-16T14:27:50.531Z,59.50
2023-05-16T14:30:17.310Z,60.93
2023-05-16T14:32:44.338Z,58.22
2023-05-16T14:35:11.151Z,58.91
2023-05-16T14:37:38.560Z,57.96
2023-05-16T14:40:07.929Z,54.84
2023-05-16T14:42:35.024Z,57.29
2023-05-16T14:45:04.271Z,60.26
2023-05-16T14:47:31.337Z,60.92
2023-05-16T14:49:58.654Z,60.61
2023-05-16T14:52:25.469Z,58.51
2023-05-16T14:54:52.318Z,57.38
2023-05-16T14:57:19.059Z,58.42
2023-05-16T14:59:45.852Z,56.51
2023-05-16T15:02:15.332Z,57.51
2023-05-16T15:04:42.803Z,58.31
2023-05-16T15:07:09.481Z,58.14
2023-05-16T15:09:36.278Z,59.78
2023-05-16T15:12:03.395Z,58.52
2023-05-16T15:14:30.776Z,57.63
2023-05-16T15:16:57.550Z,57.47
2023-05-16T15:19:26.386Z,57.51
2023-05-16T15:21:53.720Z,58.79
2023-05-16T15:24:20.560Z,56.29
2023-05-16T15:26:47.802Z,57.83
2023-05-16T15:29:15.204Z,58.35
2023-05-16T15:31:42.773Z,59.13
2023-05-16T15:34:09.891Z,58.98
2023-05-16T15:36:38.771Z,58.98
2023-05-16T15:39:06.297Z,61.24
2023-05-16T15:41:56.974Z,61.27
2023-05-16T15:44:20.901Z,63.29
2023-05-16T15:46:48.271Z,60.07
2023-05-16T15:49:14.990Z,60.20
2023-05-16T15:51:43.379Z,59.92
2023-05-16T15:54:10.095Z,58.35
2023-05-16T15:56:36.952Z,60.88
2023-05-16T15:59:03.672Z,61.82
2023-05-16T16:01:30.890Z,64.56
2023-05-16T16:03:58.132Z,63.50
2023-05-16T16:06:26.040Z,65.14
2023-05-16T16:08:54.194Z,63.02
2023-05-16T16:11:21.204Z,60.85
2023-05-16T16:13:49.502Z,61.10
2023-05-16T16:16:16.905Z,59.92
2023-05-16T16:18:44.243Z,61.47
2023-05-16T16:21:12.362Z,60.73
2023-05-16T16:23:40.001Z,61.39
2023-05-16T16:26:08.202Z,61.06
2023-05-16T16:28:35.283Z,61.05
2023-05-16T16:31:02.072Z,61.68
2023-05-16T16:33:30.902Z,60.94
2023-05-16T16:35:58.492Z,61.47
2023-05-16T16:38:25.734Z,62.35
2023-05-16T16:40:53.360Z,64.36
2023-05-16T16:43:22.239Z,64.01
2023-05-16T16:45:49.006Z,63.21
2023-05-16T16:48:16.212Z,62.31
2023-05-16T16:50:45.023Z,60.67
2023-05-16T16:53:11.737Z,60.31
2023-05-16T16:55:40.626Z,61.08
2023-05-16T16:58:08.198Z,58.89
2023-05-16T17:00:37.338Z,59.93
2023-05-16T17:03:04.386Z,59.39
2023-05-16T17:05:32.347Z,59.25
2023-05-16T17:07:59.081Z,61.50
2023-05-16T17:10:25.784Z,59.36
2023-05-16T17:12:52.710Z,60.39
2023-05-16T17:15:19.493Z,61.36
2023-05-16T17:17:47.799Z,61.69
2023-05-16T17:20:14.773Z,61.33
2023-05-16T17:22:41.999Z,60.69
2023-05-16T17:25:09.719Z,61.29
2023-05-16T17:27:37.152Z,61.12
2023-05-16T17:30:04.733Z,60.32
2023-05-16T17:32:33.551Z,60.54
2023-05-16T17:35:03.223Z,63.20
2023-05-16T17:37:30.609Z,61.82
2023-05-16T17:39:57.947Z,62.64
2023-05-16T17:42:25.581Z,62.88
2023-05-16T17:44:53.075Z,61.40
2023-05-16T17:47:20.719Z,62.51
2023-05-16T17:49:47.750Z,63.02
2023-05-16T17:52:15.913Z,63.50
2023-05-16T17:54:43.611Z,62.08
2023-05-16T17:57:10.528Z,62.14
2023-05-16T17:59:38.184Z,60.50
2023-05-16T18:02:05.993Z,60.93
2023-05-16T18:04:33.486Z,60.29
2023-05-16T18:07:00.171Z,60.90
2023-05-16T18:09:28.590Z,60.07
2023-05-16T18:11:55.443Z,60.94
2023-05-16T18:14:22.344Z,62.33
2023-05-16T18:16:49.249Z,60.25
2023-05-16T18:19:16.130Z,62.90
2023-05-16T18:21:43.242Z,61.92
2023-05-16T18:24:09.984Z,63.98
2023-05-16T18:26:42.320Z,62.20
2023-05-16T18:29:09.622Z,63.47
2023-05-16T18:31:36.485Z,62.16
2023-05-16T18:34:04.282Z,62.11
2023-05-16T18:36:33.043Z,62.46
2023-05-16T18:39:00.112Z,65.03
2023-05-16T18:41:27.220Z,67.60
2023-05-16T18:43:56.132Z,67.38
2023-05-16T18:46:23.452Z,67.96
2023-05-16T18:48:51.151Z,66.26
2023-05-16T18:51:18.505Z,67.57
2023-05-16T18:53:45.253Z,67.39
2023-05-16T18:56:12.502Z,67.18
2023-05-16T18:58:39.270Z,67.45
2023-05-16T19:01:07.796Z,65.89
2023-05-16T19:03:34.901Z,66.63
2023-05-16T19:06:02.280Z,67.70
2023-05-16T19:08:36.976Z,69.57
2023-05-16T19:11:14.015Z,68.47
2023-05-16T19:13:40.723Z,68.19
2023-05-16T19:16:08.893Z,66.62
2023-05-16T19:18:36.487Z,67.03
2023-05-16T19:21:03.451Z,65.67
2023-05-16T19:23:30.329Z,67.30
2023-05-16T19:25:57.170Z,69.16
2023-05-16T19:28:23.951Z,69.48
2023-05-16T19:30:51.670Z,70.40
2023-05-16T19:33:20.107Z,70.82
2023-05-16T19:35:47.321Z,70.58
2023-05-16T19:38:14.076Z,70.48
2023-05-16T19:40:40.875Z,71.42
2023-05-16T19:43:07.657Z,75.19
2023-05-16T19:45:34.461Z,75.87
2023-05-16T19:48:01.386Z,73.78
2023-05-16T19:50:29.995Z,71.84
2023-05-16T19:52:56.800Z,71.33
2023-05-16T19:55:23.884Z,72.71
2023-05-16T19:57:50.826Z,72.72
2023-05-16T20:00:18.107Z,73.60
2023-05-16T20:02:45.211Z,75.39
2023-05-16T20:05:12.456Z,75.36
2023-05-16T20:07:40.929Z,74.73
2023-05-16T20:10:09.475Z,76.08
2023-05-16T20:12:36.330Z,76.00
2023-05-16T20:15:03.711Z,75.24
2023-05-16T20:17:30.658Z,75.62
2023-05-16T20:19:58.016Z,75.28
2023-05-16T20:22:25.626Z,75.78
2023-05-16T20:24:53.993Z,75.60
2023-05-16T20:27:20.782Z,75.04
2023-05-16T20:29:48.242Z,75.22
2023-05-16T20:32:15.465Z,76.99
2023-05-16T20:34:43.248Z,77.32
2023-05-16T20:37:10.381Z,77.68
2023-05-16T20:39:37.361Z,78.23
2023-05-16T20:42:05.988Z,78.24
2023-05-16T20:44:32.718Z,78.42
2023-05-16T20:46:59.882Z,78.61
2023-05-16T20:49:27.016Z,79.24
2023-05-16T20:51:55.135Z,80.03
2023-05-16T20:54:22.698Z,80.04
2023-05-16T20:56:49.637Z,80.24
2023-05-16T20:59:18.858Z,80.56
2023-05-16T21:01:45.715Z,79.88
2023-05-16T21:04:12.844Z,79.47
2023-05-16T21:06:39.841Z,80.76
2023-05-16T21:09:06.815Z,81.47
2023-05-16T21:11:34.159Z,82.36
2023-05-16T21:14:01.013Z,81.91
2023-05-16T21:16:29.734Z,83.49
2023-05-16T21:18:57.017Z,84.82
2023-05-16T21:21:23.861Z,85.38
2023-05-16T21:23:50.892Z,85.49
2023-05-16T21:26:17.592Z,85.25
2023-05-16T21:28:54.364Z,84.91
2023-05-16T21:31:22.174Z,84.89
2023-05-16T21:33:50.443Z,84.70
2023-05-16T21:36:17.342Z,84.60
2023-05-16T21:38:45.188Z,85.19
2023-05-16T21:41:12.437Z,86.16
2023-05-16T21:43:39.514Z,86.31
2023-05-16T21:46:08.263Z,86.32
2023-05-16T21:48:36.057Z,86.55
2023-05-16T21:51:04.456Z,86.55
2023-05-16T21:53:31.274Z,87.24
2023-05-16T21:55:57.994Z,87.47
2023-05-16T21:58:24.774Z,88.00
2023-05-16T22:00:51.771Z,86.90
2023-05-16T22:03:21.045Z,86.28
2023-05-16T22:05:48.210Z,86.99
2023-05-16T22:08:16.884Z,89.69
2023-05-16T22:10:43.657Z,91.02
2023-05-16T22:13:10.428Z,90.78
2023-05-16T22:15:37.310Z,90.71
2023-05-16T22:18:04.335Z,90.68
2023-05-16T22:20:31.161Z,89.73
2023-05-16T22:22:58.324Z,89.02
2023-05-16T22:25:27.031Z,87.92
2023-05-16T22:27:54.005Z,88.43
2023-05-16T22:30:20.943Z,88.82
2023-05-16T22:32:47.872Z,89.20
2023-05-16T22:35:14.687Z,89.86
2023-05-16T22:37:41.741Z,90.11
2023-05-16T22:40:09.711Z,90.93
2023-05-16T22:42:38.476Z,91.43
2023-05-16T22:45:06.837Z,90.95
2023-05-16T22:47:33.654Z,91.85
2023-05-16T22:50:00.756Z,92.04
2023-05-16T22:52:27.599Z,90.86
2023-05-16T22:54:54.766Z,90.77
2023-05-16T22:57:21.512Z,90.70
2023-05-16T22:59:50.220Z,91.94
2023-05-16T23:02:17.338Z,92.90
2023-05-16T23:04:44.399Z,94.80
2023-05-16T23:07:11.464Z,96.21
2023-05-16T23:09:38.409Z,96.06
2023-05-16T23:12:05.621Z,94.93
2023-05-16T23:14:32.668Z,94.28
2023-05-16T23:17:00.930Z,94.34
2023-05-16T23:19:27.641Z,94.37
2023-05-16T23:21:54.895Z,94.99
2023-05-16T23:24:31.242Z,94.73
2023-05-16T23:26:58.566Z,95.13
2023-05-16T23:29:25.432Z,97.04
2023-05-16T23:31:53.016Z,97.82
2023-05-16T23:34:21.669Z,97.98
2023-05-16T23:36:48.456Z,97.39
2023-05-16T23:39:15.370Z,97.21
2023-05-16T23:41:42.419Z,98.25
2023-05-16T23:44:09.556Z,99.36
2023-05-16T23:46:36.313Z,99.96
2023-05-16T23:49:03.558Z,99.63
2023-05-16T23:51:44.874Z,97.93
2023-05-16T23:54:19.384Z,98.17
2023-05-16T23:56:46.241Z,97.33
2023-05-16T23:59:13.095Z,96.76
